Weather at Aviosuperficie Terranova

Public forecast

Using degrees Celsius for public forecast. Weather courtesy of forecast.io.

Closest aviation weather report (METAR) to Aviosuperficie Terranova

Closest report is Vincenzo Florio Airport Trapani-Birgi, 29.6 nm (54.7 km) NW. Retrieved 2021/01/17 20:55 UTC (39 minutes ago):

LICT 172055Z 30028KT 9999 SCT020 13/10 Q1014

Closest aviation forecast (TAF) to Aviosuperficie Terranova

Forecast is more than 12 hours old.

Closest forecast is Vincenzo Florio Airport Trapani-Birgi, 29.6 nm (54.7 km) NW. Retrieved 2019/01/11 09:24 UTC (2 years ago):

TAF TAF LICT 110800Z 1109/1121 33012KT 9999 SCT025